createdAt,value
2022-10-01T00:00:00.726Z,92.00
2022-10-01T00:02:30.300Z,92.00
2022-10-01T00:04:58.532Z,92.00
2022-10-01T00:07:26.778Z,92.00
2022-10-01T00:09:54.942Z,92.00
2022-10-01T00:12:23.061Z,92.00
2022-10-01T00:14:52.091Z,92.00
2022-10-01T00:17:20.247Z,92.00
2022-10-01T00:19:49.799Z,92.00
2022-10-01T00:22:18.996Z,92.00
2022-10-01T00:24:47.979Z,92.00
2022-10-01T00:27:16.298Z,92.00
2022-10-01T00:29:45.323Z,92.00
2022-10-01T00:32:13.548Z,92.00
2022-10-01T00:34:41.751Z,92.00
2022-10-01T00:37:11.448Z,92.00
2022-10-01T00:39:39.759Z,92.00
2022-10-01T00:42:19.144Z,92.00
2022-10-01T00:44:47.735Z,92.00
2022-10-01T00:47:24.353Z,92.00
2022-10-01T00:49:59.336Z,92.00
2022-10-01T00:52:33.077Z,92.00
2022-10-01T00:55:06.068Z,92.00
2022-10-01T00:57:35.407Z,92.00
2022-10-01T01:00:07.906Z,92.00
2022-10-01T01:02:36.179Z,92.00
2022-10-01T01:05:05.943Z,92.00
2022-10-01T01:07:35.922Z,92.00
2022-10-01T01:10:06.426Z,92.00
2022-10-01T01:12:55.964Z,92.00
2022-10-01T01:15:32.702Z,92.00
2022-10-01T01:18:09.306Z,92.00
2022-10-01T01:21:02.660Z,92.00
2022-10-01T01:23:54.372Z,92.00
2022-10-01T01:26:32.342Z,92.00
2022-10-01T01:29:08.029Z,92.00
2022-10-01T01:31:42.771Z,91.90
2022-10-01T01:34:15.209Z,92.00
2022-10-01T01:36:47.574Z,92.00
2022-10-01T01:39:18.186Z,92.00
2022-10-01T01:41:50.971Z,92.00
2022-10-01T01:44:24.980Z,91.90
2022-10-01T01:46:56.424Z,92.30
2022-10-01T01:49:25.178Z,91.90
2022-10-01T01:51:59.514Z,92.00
2022-10-01T01:54:30.419Z,91.90
2022-10-01T01:56:59.594Z,91.90
2022-10-01T01:59:29.686Z,91.90
2022-10-01T02:01:58.939Z,91.90
2022-10-01T02:04:31.541Z,91.90
2022-10-01T02:07:17.970Z,91.90
2022-10-01T02:09:54.223Z,92.00
2022-10-01T02:12:35.660Z,92.00
2022-10-01T02:15:12.924Z,91.90
2022-10-01T02:17:51.242Z,91.90
2022-10-01T02:20:25.846Z,92.00
2022-10-01T02:22:58.366Z,91.90
2022-10-01T02:25:30.988Z,91.90
2022-10-01T02:28:01.779Z,91.90
2022-10-01T02:30:35.518Z,91.90
2022-10-01T02:33:05.839Z,91.90
2022-10-01T02:35:36.776Z,91.90
2022-10-01T02:38:08.066Z,91.90
2022-10-01T02:40:39.457Z,91.90
2022-10-01T02:43:12.451Z,91.90
2022-10-01T02:45:45.119Z,91.90
2022-10-01T02:48:18.075Z,91.90
2022-10-01T02:50:51.519Z,91.90
2022-10-01T02:53:24.032Z,91.90
2022-10-01T02:55:52.995Z,91.90
2022-10-01T02:58:20.965Z,91.90
2022-10-01T03:00:50.586Z,91.90
2022-10-01T03:03:18.761Z,91.90
2022-10-01T03:05:46.987Z,91.90
2022-10-01T03:08:15.136Z,91.90
2022-10-01T03:10:46.594Z,91.90
2022-10-01T03:13:15.163Z,91.90
2022-10-01T03:15:43.427Z,91.90
2022-10-01T03:18:12.983Z,91.90
2022-10-01T03:20:41.132Z,91.90
2022-10-01T03:23:09.332Z,91.80
2022-10-01T03:25:37.486Z,91.90
2022-10-01T03:28:05.963Z,91.90
2022-10-01T03:30:34.355Z,91.90
2022-10-01T03:33:02.674Z,91.90
2022-10-01T03:35:32.276Z,92.00
2022-10-01T03:38:00.481Z,91.90
2022-10-01T03:40:28.903Z,91.90
2022-10-01T03:42:57.030Z,91.90
2022-10-01T03:45:25.364Z,92.00
2022-10-01T03:47:54.058Z,92.00
2022-10-01T03:50:22.562Z,92.00
2022-10-01T03:52:52.100Z,92.00
2022-10-01T03:55:20.342Z,92.00
2022-10-01T03:57:48.812Z,92.00
2022-10-01T04:00:18.337Z,92.30
2022-10-01T04:02:46.561Z,92.00
2022-10-01T04:05:15.103Z,92.00
2022-10-01T04:07:43.706Z,92.00
2022-10-01T04:10:13.797Z,92.00
2022-10-01T04:12:41.921Z,92.00
2022-10-01T04:15:10.843Z,92.00
2022-10-01T04:17:41.672Z,92.00
2022-10-01T04:20:13.377Z,92.00
2022-10-01T04:22:42.028Z,92.00
2022-10-01T04:25:11.908Z,92.00
2022-10-01T04:27:42.690Z,92.00
2022-10-01T04:30:11.733Z,92.00
2022-10-01T04:32:40.276Z,92.00
2022-10-01T04:35:11.199Z,92.10
2022-10-01T04:37:39.376Z,92.00
2022-10-01T04:40:08.234Z,92.00
2022-10-01T04:42:36.488Z,92.00
2022-10-01T04:45:07.079Z,92.00
2022-10-01T04:47:37.599Z,92.00
2022-10-01T04:50:06.855Z,92.00
2022-10-01T04:52:34.940Z,92.00
2022-10-01T04:55:03.074Z,92.10
2022-10-01T04:57:31.262Z,92.00
2022-10-01T04:59:59.408Z,92.00
2022-10-01T05:02:29.386Z,92.00
2022-10-01T05:04:57.786Z,92.00
2022-10-01T05:07:25.950Z,92.00
2022-10-01T05:09:54.074Z,92.10
2022-10-01T05:12:24.542Z,92.00
2022-10-01T05:14:53.227Z,92.00
2022-10-01T05:17:21.951Z,92.00
2022-10-01T05:19:51.765Z,92.00
2022-10-01T05:22:20.331Z,92.00
2022-10-01T05:24:48.500Z,92.00
2022-10-01T05:27:16.871Z,92.00
2022-10-01T05:29:46.163Z,92.00
2022-10-01T05:32:14.854Z,92.00
2022-10-01T05:34:43.012Z,92.00
2022-10-01T05:37:12.638Z,92.00
2022-10-01T05:39:40.798Z,92.00
2022-10-01T05:42:08.988Z,92.00
2022-10-01T05:44:39.957Z,92.00
2022-10-01T05:47:08.604Z,92.00
2022-10-01T05:49:36.747Z,92.00
2022-10-01T05:52:07.053Z,92.00
2022-10-01T05:54:36.639Z,92.00
2022-10-01T05:57:05.311Z,92.00
2022-10-01T05:59:33.576Z,92.00
2022-10-01T06:02:02.457Z,92.00
2022-10-01T06:04:30.758Z,92.00
2022-10-01T06:06:59.013Z,92.00
2022-10-01T06:09:27.382Z,92.00
2022-10-01T06:11:56.956Z,92.00
2022-10-01T06:14:25.151Z,92.00
2022-10-01T06:16:54.929Z,92.00
2022-10-01T06:19:23.215Z,92.00
2022-10-01T06:21:52.442Z,92.00
2022-10-01T06:24:20.557Z,92.00
2022-10-01T06:26:49.167Z,92.00
2022-10-01T06:29:18.728Z,91.90
2022-10-01T06:31:46.921Z,92.00
2022-10-01T06:34:15.126Z,91.90
2022-10-01T06:36:43.288Z,91.90
2022-10-01T06:39:11.458Z,91.90
2022-10-01T06:41:40.806Z,91.90
2022-10-01T06:44:13.446Z,91.90
2022-10-01T06:46:42.974Z,91.90
2022-10-01T06:49:11.192Z,91.90
2022-10-01T06:51:57.060Z,91.90
2022-10-01T06:54:27.311Z,91.90
2022-10-01T06:56:55.489Z,91.80
2022-10-01T06:59:23.648Z,91.90
2022-10-01T07:01:56.367Z,92.00
2022-10-01T07:04:25.418Z,91.80
2022-10-01T07:06:55.138Z,91.80
2022-10-01T07:09:25.802Z,91.90
2022-10-01T07:11:54.650Z,91.80
2022-10-01T07:14:23.310Z,91.80
2022-10-01T07:16:52.861Z,91.80
2022-10-01T07:19:21.222Z,91.80
2022-10-01T07:21:49.600Z,91.80
2022-10-01T07:24:17.747Z,91.80
2022-10-01T07:26:47.859Z,91.80
2022-10-01T07:29:16.034Z,91.80
2022-10-01T07:31:44.232Z,91.80
2022-10-01T07:34:13.910Z,91.80
2022-10-01T07:36:45.399Z,91.80
2022-10-01T07:39:13.623Z,91.80
2022-10-01T07:41:43.432Z,92.10
2022-10-01T07:44:12.574Z,91.80
2022-10-01T07:46:41.095Z,91.80
2022-10-01T07:49:10.131Z,91.80
2022-10-01T07:51:39.830Z,91.80
2022-10-01T07:54:08.151Z,91.80
2022-10-01T07:56:36.390Z,91.70
2022-10-01T07:59:05.003Z,91.70
2022-10-01T08:01:33.555Z,91.70
2022-10-01T08:04:22.559Z,91.70
2022-10-01T08:06:53.221Z,91.70
2022-10-01T08:09:21.629Z,91.70
2022-10-01T08:11:49.798Z,91.70
2022-10-01T08:14:20.485Z,91.70
2022-10-01T08:16:48.735Z,91.70
2022-10-01T08:19:17.095Z,91.70
2022-10-01T08:21:45.253Z,91.70
2022-10-01T08:24:14.775Z,91.70
2022-10-01T08:26:42.921Z,91.70
2022-10-01T08:29:16.228Z,91.70
2022-10-01T08:31:45.659Z,91.70
2022-10-01T08:34:13.895Z,91.70
2022-10-01T08:36:42.275Z,91.70
2022-10-01T08:39:10.854Z,91.60
2022-10-01T08:41:51.559Z,91.60
2022-10-01T08:44:22.739Z,91.60
2022-10-01T08:46:53.474Z,91.60
2022-10-01T08:49:26.121Z,91.70
2022-10-01T08:52:00.610Z,91.60
2022-10-01T08:54:35.034Z,91.70
2022-10-01T08:57:08.092Z,91.70
2022-10-01T08:59:41.917Z,91.70
2022-10-01T09:02:28.941Z,91.70
2022-10-01T09:05:01.876Z,91.70
2022-10-01T09:07:50.697Z,91.70
2022-10-01T09:10:35.784Z,91.70
2022-10-01T09:13:25.007Z,91.70
2022-10-01T09:16:04.309Z,91.70
2022-10-01T09:18:46.139Z,91.70
2022-10-01T09:21:20.861Z,91.70
2022-10-01T09:24:03.229Z,91.70
2022-10-01T09:26:31.734Z,91.70
2022-10-01T09:29:03.838Z,91.60
2022-10-01T09:31:38.510Z,91.60
2022-10-01T09:34:12.951Z,91.60
2022-10-01T09:36:48.146Z,91.70
2022-10-01T09:39:21.131Z,91.70
2022-10-01T09:41:49.377Z,91.70
2022-10-01T09:44:23.843Z,91.70
2022-10-01T09:46:51.958Z,91.70
2022-10-01T09:49:29.459Z,91.70
2022-10-01T09:52:02.671Z,91.60
2022-10-01T09:54:36.425Z,91.70
2022-10-01T09:57:09.927Z,91.70
2022-10-01T09:59:48.159Z,91.70
2022-10-01T10:02:21.261Z,91.60
2022-10-01T10:05:00.397Z,91.70
2022-10-01T10:07:32.443Z,91.70
2022-10-01T10:10:10.095Z,91.80
2022-10-01T10:12:38.555Z,91.70
2022-10-01T10:15:16.500Z,91.70
2022-10-01T10:17:49.835Z,91.70
2022-10-01T10:20:29.756Z,91.70
2022-10-01T10:23:08.682Z,91.70
2022-10-01T10:25:36.910Z,91.70
2022-10-01T10:28:05.179Z,91.70
2022-10-01T10:30:38.048Z,91.70
2022-10-01T10:33:08.236Z,91.70
2022-10-01T10:35:37.102Z,91.70
2022-10-01T10:38:05.856Z,91.70
2022-10-01T10:40:41.999Z,91.70
2022-10-01T10:43:20.780Z,91.70
2022-10-01T10:45:56.201Z,91.70
2022-10-01T10:48:31.684Z,91.70
2022-10-01T10:51:01.569Z,91.70
2022-10-01T10:53:33.440Z,91.70
2022-10-01T10:56:03.886Z,91.70
2022-10-01T10:58:33.952Z,91.80
2022-10-01T11:01:10.043Z,91.80
2022-10-01T11:03:43.302Z,91.80
2022-10-01T11:06:13.253Z,91.80
2022-10-01T11:08:42.174Z,91.80
2022-10-01T11:11:24.489Z,91.80
2022-10-01T11:14:08.460Z,91.70
2022-10-01T11:16:52.689Z,91.70
2022-10-01T11:19:34.649Z,91.70
2022-10-01T11:22:24.623Z,91.70
2022-10-01T11:25:20.383Z,91.70
2022-10-01T11:27:53.901Z,91.70
2022-10-01T11:30:25.989Z,91.70
2022-10-01T11:33:05.177Z,92.10
2022-10-01T11:35:45.017Z,92.00
2022-10-01T11:38:43.220Z,91.70
2022-10-01T11:41:21.826Z,91.70
2022-10-01T11:43:54.265Z,91.70
2022-10-01T11:46:40.996Z,91.70
2022-10-01T11:49:26.736Z,91.70
2022-10-01T11:52:05.951Z,91.70
2022-10-01T11:54:37.061Z,91.70
2022-10-01T11:57:23.937Z,91.70
2022-10-01T11:59:56.352Z,91.70
2022-10-01T12:02:32.015Z,91.70
2022-10-01T12:05:06.554Z,91.70
2022-10-01T12:07:43.722Z,91.70
2022-10-01T12:10:22.196Z,91.70
2022-10-01T12:12:59.164Z,92.10
2022-10-01T12:15:32.382Z,91.70
2022-10-01T12:18:06.451Z,91.70
2022-10-01T12:20:41.599Z,91.70
2022-10-01T12:23:15.622Z,91.70
2022-10-01T12:25:51.550Z,91.70
2022-10-01T12:28:24.285Z,91.70
2022-10-01T12:30:57.711Z,91.70
2022-10-01T12:33:46.657Z,91.70
2022-10-01T12:36:26.535Z,91.70
2022-10-01T12:39:11.295Z,91.80
2022-10-01T12:41:50.676Z,91.80
2022-10-01T12:44:36.692Z,91.80
2022-10-01T12:47:18.938Z,91.80
2022-10-01T12:49:54.513Z,91.80
2022-10-01T12:52:33.827Z,91.80
2022-10-01T12:55:19.334Z,91.80
2022-10-01T12:57:59.848Z,91.80
2022-10-01T13:00:33.541Z,91.80
2022-10-01T13:03:26.515Z,91.80
2022-10-01T13:06:09.601Z,91.80
2022-10-01T13:08:52.073Z,91.80
2022-10-01T13:11:37.398Z,91.80
2022-10-01T13:14:07.536Z,91.80
2022-10-01T13:16:40.833Z,91.80
2022-10-01T13:19:16.131Z,91.80
2022-10-01T13:21:57.814Z,91.70
2022-10-01T13:24:33.919Z,91.70
2022-10-01T13:27:06.658Z,91.70
2022-10-01T13:29:48.870Z,91.80
2022-10-01T13:32:29.689Z,91.80
2022-10-01T13:34:59.671Z,91.80
2022-10-01T13:37:36.955Z,91.80
2022-10-01T13:40:24.317Z,91.80
2022-10-01T13:42:54.862Z,91.80
2022-10-01T13:45:29.842Z,91.80
2022-10-01T13:48:14.016Z,91.80
2022-10-01T13:50:55.238Z,91.80
2022-10-01T13:53:26.036Z,91.80
2022-10-01T13:55:56.903Z,91.80
2022-10-01T13:58:34.250Z,91.80
2022-10-01T14:01:05.064Z,91.90
2022-10-01T14:03:52.361Z,92.30
2022-10-01T14:06:25.762Z,91.90
2022-10-01T14:09:04.449Z,91.90
2022-10-01T14:11:54.123Z,91.90
2022-10-01T14:14:44.694Z,91.90
2022-10-01T14:17:13.602Z,91.90
2022-10-01T14:19:49.645Z,91.90
2022-10-01T14:22:47.980Z,91.90
2022-10-01T14:25:30.609Z,92.30
2022-10-01T14:28:22.758Z,91.90
2022-10-01T14:30:57.809Z,91.90
2022-10-01T14:33:46.883Z,91.90
2022-10-01T14:36:18.564Z,91.90
2022-10-01T14:38:46.999Z,91.90
2022-10-01T14:41:19.742Z,91.90
2022-10-01T14:43:49.335Z,92.00
2022-10-01T14:46:19.448Z,91.90
2022-10-01T14:48:59.263Z,92.00
2022-10-01T14:51:30.180Z,92.00
2022-10-01T14:54:00.792Z,92.00
2022-10-01T14:56:30.154Z,92.00
2022-10-01T14:59:05.411Z,92.00
2022-10-01T15:01:33.671Z,92.00
2022-10-01T15:04:02.330Z,92.00
2022-10-01T15:06:32.561Z,92.00
2022-10-01T15:09:14.881Z,92.00
2022-10-01T15:11:44.975Z,92.00
2022-10-01T15:14:18.698Z,92.00
2022-10-01T15:16:47.320Z,92.10
2022-10-01T15:19:18.068Z,92.10
2022-10-01T15:21:50.999Z,92.10
2022-10-01T15:24:25.996Z,92.10
2022-10-01T15:26:56.763Z,92.00
2022-10-01T15:29:26.376Z,92.00
2022-10-01T15:31:57.745Z,92.00
2022-10-01T15:34:27.443Z,92.10
2022-10-01T15:36:56.416Z,92.10
2022-10-01T15:39:33.277Z,92.10
2022-10-01T15:42:07.066Z,92.20
2022-10-01T15:44:47.551Z,92.20
2022-10-01T15:47:33.873Z,92.20
2022-10-01T15:50:07.631Z,92.20
2022-10-01T15:52:52.977Z,92.20
2022-10-01T15:55:24.757Z,92.20
2022-10-01T15:57:57.338Z,92.20
2022-10-01T16:00:29.648Z,92.20
2022-10-01T16:02:59.311Z,92.20
2022-10-01T16:05:32.275Z,92.20
2022-10-01T16:08:00.460Z,92.30
2022-10-01T16:10:37.161Z,92.30
2022-10-01T16:13:36.358Z,92.30
2022-10-01T16:16:19.704Z,92.30
2022-10-01T16:18:53.905Z,92.30
2022-10-01T16:21:23.027Z,92.30
2022-10-01T16:23:53.010Z,92.30
2022-10-01T16:26:39.616Z,92.30
2022-10-01T16:29:20.887Z,92.30
2022-10-01T16:31:51.380Z,92.30
2022-10-01T16:34:21.435Z,92.30
2022-10-01T16:36:50.237Z,92.30
2022-10-01T16:39:18.549Z,92.30
2022-10-01T16:42:06.209Z,92.30
2022-10-01T16:44:40.053Z,92.30
2022-10-01T16:47:12.506Z,92.30
2022-10-01T16:49:41.256Z,92.30
2022-10-01T16:52:14.717Z,92.40
2022-10-01T16:54:44.307Z,92.30
2022-10-01T16:57:12.611Z,92.40
2022-10-01T16:59:40.879Z,92.40
2022-10-01T17:02:14.242Z,92.30
2022-10-01T17:04:42.600Z,92.30
2022-10-01T17:07:10.841Z,92.30
2022-10-01T17:09:39.042Z,92.40
2022-10-01T17:12:07.224Z,92.40
2022-10-01T17:14:35.481Z,92.40
2022-10-01T17:17:03.658Z,92.40
2022-10-01T17:19:33.182Z,92.40
2022-10-01T17:22:01.421Z,92.40
2022-10-01T17:24:29.606Z,92.40
2022-10-01T17:26:57.775Z,92.50
2022-10-01T17:29:26.683Z,92.40
2022-10-01T17:31:54.960Z,92.50
2022-10-01T17:34:23.264Z,92.50
2022-10-01T17:36:52.749Z,92.40
2022-10-01T17:39:20.885Z,92.40
2022-10-01T17:41:49.042Z,92.40
2022-10-01T17:44:17.204Z,92.40
2022-10-01T17:46:45.389Z,92.50
2022-10-01T17:49:14.555Z,92.50
2022-10-01T17:51:42.830Z,92.50
2022-10-01T17:54:12.381Z,92.40
2022-10-01T17:56:41.947Z,92.40
2022-10-01T17:59:10.110Z,92.50
2022-10-01T18:01:41.196Z,92.50
2022-10-01T18:04:12.342Z,92.50
2022-10-01T18:06:40.665Z,92.50
2022-10-01T18:09:09.206Z,92.50
2022-10-01T18:11:39.413Z,92.50
2022-10-01T18:14:08.047Z,92.50
2022-10-01T18:16:36.766Z,92.50
2022-10-01T18:19:52.411Z,92.50
2022-10-01T18:21:54.058Z,92.50
2022-10-01T18:24:22.299Z,92.40
2022-10-01T18:26:52.176Z,92.50
2022-10-01T18:29:22.926Z,92.50
2022-10-01T18:31:53.761Z,92.50
2022-10-01T18:34:29.524Z,92.50
2022-10-01T18:37:03.806Z,92.50
2022-10-01T18:39:37.646Z,92.50
2022-10-01T18:42:17.383Z,92.80
2022-10-01T18:44:46.427Z,92.50
2022-10-01T18:47:26.147Z,92.50
2022-10-01T18:50:26.710Z,92.50
2022-10-01T18:53:08.702Z,92.50
2022-10-01T18:56:03.003Z,92.50
2022-10-01T18:59:04.571Z,92.50
2022-10-01T19:01:42.915Z,92.50
2022-10-01T19:04:43.828Z,92.50
2022-10-01T19:07:23.332Z,92.50
2022-10-01T19:10:02.377Z,92.60
2022-10-01T19:12:46.739Z,92.60
2022-10-01T19:15:26.701Z,92.60
2022-10-01T19:18:20.377Z,92.60
2022-10-01T19:20:59.686Z,92.60
2022-10-01T19:23:51.474Z,92.60
2022-10-01T19:26:27.711Z,92.60
2022-10-01T19:29:20.746Z,92.60
2022-10-01T19:31:55.972Z,92.60
2022-10-01T19:34:31.358Z,92.60
2022-10-01T19:37:04.726Z,92.60
2022-10-01T19:39:38.619Z,92.60
2022-10-01T19:42:12.442Z,92.60
2022-10-01T19:44:45.763Z,92.60
2022-10-01T19:47:26.115Z,92.60
2022-10-01T19:49:58.646Z,92.70
2022-10-01T19:52:28.231Z,92.60
2022-10-01T19:55:00.257Z,92.70
2022-10-01T19:57:29.795Z,92.70
2022-10-01T20:00:01.695Z,92.70
2022-10-01T20:02:47.603Z,92.70
2022-10-01T20:05:19.748Z,92.70
2022-10-01T20:07:53.536Z,92.70
2022-10-01T20:10:29.026Z,92.70
2022-10-01T20:13:07.827Z,92.70
2022-10-01T20:15:45.507Z,92.60
2022-10-01T20:18:27.958Z,92.70
2022-10-01T20:21:11.543Z,92.60
2022-10-01T20:23:46.789Z,92.60
2022-10-01T20:26:24.354Z,92.70
2022-10-01T20:29:08.181Z,92.70
2022-10-01T20:31:42.781Z,92.70
2022-10-01T20:34:20.914Z,92.70
2022-10-01T20:36:54.088Z,92.70
2022-10-01T20:39:25.667Z,92.70
2022-10-01T20:41:56.558Z,92.70
2022-10-01T20:44:28.942Z,92.70
2022-10-01T20:47:03.055Z,93.10
2022-10-01T20:49:39.294Z,92.70
2022-10-01T20:52:15.394Z,92.70
2022-10-01T20:54:47.435Z,92.70
2022-10-01T20:57:22.351Z,92.70
2022-10-01T20:59:52.623Z,92.70
2022-10-01T21:02:38.532Z,92.70
2022-10-01T21:05:14.073Z,92.70
2022-10-01T21:07:51.044Z,92.70
2022-10-01T21:10:26.955Z,92.70
2022-10-01T21:13:03.523Z,92.70
2022-10-01T21:15:43.867Z,92.70
2022-10-01T21:18:18.046Z,92.70
2022-10-01T21:20:59.379Z,92.70
2022-10-01T21:23:42.161Z,92.70
2022-10-01T21:26:24.310Z,92.70
2022-10-01T21:29:22.098Z,92.70
2022-10-01T21:32:01.774Z,92.70
2022-10-01T21:34:38.170Z,92.70
2022-10-01T21:37:17.244Z,92.80
2022-10-01T21:39:56.914Z,92.80
2022-10-01T21:42:34.107Z,92.80
2022-10-01T21:45:20.690Z,92.80
2022-10-01T21:48:16.343Z,92.80
2022-10-01T21:50:56.563Z,93.20
2022-10-01T21:53:58.674Z,92.80
2022-10-01T21:56:58.880Z,92.80
2022-10-01T21:59:43.090Z,92.80
2022-10-01T22:02:26.232Z,92.80
2022-10-01T22:04:58.983Z,92.80
2022-10-01T22:07:35.372Z,92.80
2022-10-01T22:10:11.359Z,92.80
2022-10-01T22:12:43.734Z,92.70
2022-10-01T22:15:22.193Z,92.70
2022-10-01T22:17:53.690Z,92.70
2022-10-01T22:20:25.423Z,92.70
2022-10-01T22:22:58.333Z,92.80
2022-10-01T22:25:29.794Z,92.70
2022-10-01T22:28:02.975Z,92.70
2022-10-01T22:30:35.457Z,92.70
2022-10-01T22:33:15.576Z,92.70
2022-10-01T22:35:47.079Z,92.70
2022-10-01T22:38:21.527Z,92.70
2022-10-01T22:40:55.944Z,92.80
2022-10-01T22:43:24.150Z,92.80
2022-10-01T22:46:09.101Z,92.80
2022-10-01T22:48:55.194Z,92.80
2022-10-01T22:51:44.095Z,92.80
2022-10-01T22:54:31.219Z,92.80
2022-10-01T22:57:13.206Z,92.80
2022-10-01T22:59:49.091Z,92.80
2022-10-01T23:02:26.220Z,92.80
2022-10-01T23:05:06.080Z,92.80
2022-10-01T23:07:45.004Z,92.80
2022-10-01T23:10:20.296Z,92.80
2022-10-01T23:12:58.976Z,92.80
2022-10-01T23:15:37.222Z,92.80
2022-10-01T23:18:13.437Z,92.80
2022-10-01T23:20:53.324Z,92.80
2022-10-01T23:23:32.062Z,92.80
2022-10-01T23:26:12.953Z,92.70
2022-10-01T23:28:55.054Z,92.80
2022-10-01T23:31:32.665Z,92.70
2022-10-01T23:34:15.242Z,92.80
2022-10-01T23:36:49.675Z,92.80
2022-10-01T23:39:45.439Z,92.80
2022-10-01T23:42:31.667Z,92.80
2022-10-01T23:45:14.068Z,92.80
2022-10-01T23:47:50.375Z,92.80
2022-10-01T23:50:23.959Z,92.80
2022-10-01T23:53:00.970Z,92.80
2022-10-01T23:55:56.376Z,92.80
2022-10-01T23:58:27.037Z,92.80
